createdAt,value
2018-03-08T00:00:49.718Z,30.07
2018-03-08T00:03:17.494Z,35.00
2018-03-08T00:05:45.297Z,33.70
2018-03-08T00:08:12.977Z,32.97
2018-03-08T00:10:41.491Z,33.70
2018-03-08T00:13:09.156Z,36.40
2018-03-08T00:15:38.454Z,36.20
2018-03-08T00:18:06.338Z,39.37
2018-03-08T00:20:34.608Z,37.63
2018-03-08T00:23:02.267Z,39.27
2018-03-08T00:25:29.960Z,41.40
2018-03-08T00:27:57.971Z,36.83
2018-03-08T00:30:26.800Z,38.00
2018-03-08T00:32:54.460Z,41.90
2018-03-08T00:35:24.751Z,40.10
2018-03-08T00:37:52.666Z,41.20
2018-03-08T00:40:21.642Z,44.87
2018-03-08T00:42:49.396Z,39.20
2018-03-08T00:45:17.055Z,41.60
2018-03-08T00:47:45.519Z,49.40
2018-03-08T00:50:13.225Z,50.93
2018-03-08T00:52:41.720Z,47.27
2018-03-08T00:55:09.557Z,50.43
2018-03-08T00:57:38.018Z,51.87
2018-03-08T01:00:05.887Z,50.00
2018-03-08T01:02:33.581Z,50.40
2018-03-08T01:05:12.082Z,54.57
2018-03-08T01:07:39.756Z,53.60
2018-03-08T01:10:07.445Z,53.90
2018-03-08T01:12:35.146Z,53.07
2018-03-08T01:15:02.860Z,50.03
2018-03-08T01:17:30.535Z,50.93
2018-03-08T01:19:58.226Z,48.47
2018-03-08T01:22:25.849Z,48.80
2018-03-08T01:24:53.537Z,48.33
2018-03-08T01:27:21.190Z,46.10
2018-03-08T01:29:48.785Z,42.93
2018-03-08T01:32:16.383Z,41.03
2018-03-08T01:34:58.116Z,37.90
2018-03-08T01:37:25.781Z,32.57
2018-03-08T01:39:53.451Z,35.83
2018-03-08T01:42:21.138Z,38.00
2018-03-08T01:44:48.804Z,35.03
2018-03-08T01:47:16.466Z,32.40
2018-03-08T01:49:44.762Z,35.37
2018-03-08T01:52:12.533Z,28.07
2018-03-08T01:54:40.208Z,21.60
2018-03-08T01:57:08.832Z,18.53
2018-03-08T01:59:36.511Z,13.50
2018-03-08T02:02:04.180Z,12.40
2018-03-08T02:04:33.946Z,11.20
2018-03-08T02:07:01.599Z,11.40
2018-03-08T02:09:29.276Z,13.30
2018-03-08T02:11:56.909Z,14.87
2018-03-08T02:14:25.356Z,18.17
2018-03-08T02:16:53.215Z,17.73
2018-03-08T02:19:20.940Z,13.73
2018-03-08T02:21:49.297Z,20.40
2018-03-08T02:24:17.722Z,18.80
2018-03-08T02:26:53.649Z,18.63
2018-03-08T02:29:21.332Z,15.83
2018-03-08T02:31:49.026Z,17.07
2018-03-08T02:34:18.382Z,19.53
2018-03-08T02:36:46.055Z,23.70
2018-03-08T02:39:13.747Z,15.17
2018-03-08T02:41:41.462Z,16.60
2018-03-08T02:44:09.915Z,12.47
2018-03-08T02:46:37.583Z,9.37
2018-03-08T02:49:05.283Z,7.67
2018-03-08T02:51:32.880Z,7.90
2018-03-08T02:54:00.545Z,11.40
2018-03-08T02:56:36.064Z,13.03
2018-03-08T02:59:03.745Z,13.33
2018-03-08T03:01:31.432Z,14.10
2018-03-08T03:03:59.115Z,14.20
2018-03-08T03:06:26.793Z,16.30
2018-03-08T03:08:55.227Z,15.93
2018-03-08T03:11:22.883Z,17.23
2018-03-08T03:13:50.573Z,16.97
2018-03-08T03:16:18.235Z,20.67
2018-03-08T03:18:45.927Z,20.53
2018-03-08T03:21:14.348Z,22.50
2018-03-08T03:23:42.033Z,25.73
2018-03-08T03:26:09.891Z,28.17
2018-03-08T03:28:37.618Z,26.97
2018-03-08T03:31:05.965Z,21.80
2018-03-08T03:33:33.570Z,29.23
2018-03-08T03:36:01.216Z,30.30
2018-03-08T03:38:29.657Z,25.60
2018-03-08T03:40:57.337Z,30.47
2018-03-08T03:43:25.536Z,30.93
2018-03-08T03:45:53.230Z,27.53
2018-03-08T03:48:20.917Z,29.33
2018-03-08T03:50:48.609Z,30.53
2018-03-08T03:53:17.047Z,31.47
2018-03-08T03:55:51.888Z,29.40
2018-03-08T03:58:19.473Z,30.80
2018-03-08T04:00:47.081Z,32.33
2018-03-08T04:03:14.676Z,34.60
2018-03-08T04:05:42.283Z,39.27
2018-03-08T04:08:10.731Z,38.00
2018-03-08T04:10:38.426Z,36.93
2018-03-08T04:13:06.074Z,33.80
2018-03-08T04:15:56.653Z,36.93
2018-03-08T04:18:25.287Z,41.43
2018-03-08T04:20:52.978Z,36.30
2018-03-08T04:23:20.645Z,44.07
2018-03-08T04:25:48.311Z,42.93
2018-03-08T04:28:15.998Z,40.90
2018-03-08T04:30:43.677Z,39.90
2018-03-08T04:33:11.375Z,38.50
2018-03-08T04:35:39.039Z,39.83
2018-03-08T04:38:06.687Z,40.63
2018-03-08T04:40:35.116Z,41.20
2018-03-08T04:43:02.832Z,36.97
2018-03-08T04:45:37.665Z,41.73
2018-03-08T04:48:06.122Z,48.07
2018-03-08T04:50:33.786Z,45.07
2018-03-08T04:53:01.459Z,48.70
2018-03-08T04:55:29.131Z,47.50
2018-03-08T04:57:56.825Z,49.50
2018-03-08T05:00:24.534Z,51.30
2018-03-08T05:02:52.222Z,50.63
2018-03-08T05:05:20.652Z,49.43
2018-03-08T05:07:48.951Z,54.13
2018-03-08T05:10:16.632Z,53.47
2018-03-08T05:12:44.323Z,51.93
2018-03-08T05:15:19.499Z,50.43
2018-03-08T05:17:47.193Z,56.27
2018-03-08T05:20:14.871Z,54.93
2018-03-08T05:22:43.315Z,55.00
2018-03-08T05:25:10.916Z,53.07
2018-03-08T05:27:38.548Z,53.10
2018-03-08T05:30:06.289Z,57.83
2018-03-08T05:32:34.725Z,54.77
2018-03-08T05:35:03.180Z,53.13
2018-03-08T05:37:30.848Z,55.27
2018-03-08T05:39:58.508Z,60.03
2018-03-08T05:42:26.274Z,59.20
2018-03-08T05:44:56.992Z,61.17
2018-03-08T05:47:24.689Z,64.27
2018-03-08T05:49:53.133Z,62.63
2018-03-08T05:52:20.825Z,59.07
2018-03-08T05:54:48.499Z,60.37
2018-03-08T05:57:16.240Z,57.37
2018-03-08T05:59:43.912Z,56.67
2018-03-08T06:02:11.615Z,54.03
2018-03-08T06:04:39.308Z,53.23
2018-03-08T06:07:07.000Z,51.70
2018-03-08T06:09:34.720Z,53.03
2018-03-08T06:12:02.390Z,49.50
2018-03-08T06:14:33.252Z,52.03
2018-03-08T06:17:00.932Z,49.77
2018-03-08T06:19:28.603Z,50.73
2018-03-08T06:21:56.348Z,58.57
2018-03-08T06:24:24.037Z,52.17
2018-03-08T06:26:51.705Z,54.83
2018-03-08T06:29:20.199Z,57.40
2018-03-08T06:31:47.813Z,49.83
2018-03-08T06:34:15.510Z,53.40
2018-03-08T06:36:53.224Z,47.80
2018-03-08T06:39:21.583Z,50.43
2018-03-08T06:41:49.285Z,48.53
2018-03-08T06:44:16.977Z,44.47
2018-03-08T06:46:44.629Z,49.07
2018-03-08T06:49:12.311Z,44.80
2018-03-08T06:51:39.908Z,42.40
2018-03-08T06:54:07.584Z,42.50
2018-03-08T06:56:36.064Z,44.23
2018-03-08T06:59:03.716Z,48.13
2018-03-08T07:01:31.398Z,49.93
2018-03-08T07:03:59.118Z,43.40
2018-03-08T07:06:30.069Z,43.60
2018-03-08T07:08:57.725Z,49.40
2018-03-08T07:11:25.419Z,55.47
2018-03-08T07:13:53.334Z,41.80
2018-03-08T07:16:21.018Z,48.63
2018-03-08T07:18:49.802Z,39.90
2018-03-08T07:21:19.860Z,38.27
2018-03-08T07:23:48.698Z,38.77
2018-03-08T07:26:21.793Z,35.53
2018-03-08T07:28:49.495Z,32.50
2018-03-08T07:31:17.867Z,38.50
2018-03-08T07:33:46.028Z,32.80
2018-03-08T07:36:13.718Z,30.83
2018-03-08T07:38:42.173Z,28.30
2018-03-08T07:41:09.860Z,29.97
2018-03-08T07:43:38.339Z,29.93
2018-03-08T07:46:06.008Z,28.07
2018-03-08T07:48:33.678Z,28.90
2018-03-08T07:51:02.129Z,25.23
2018-03-08T07:53:29.792Z,26.70
2018-03-08T07:56:11.879Z,23.93
2018-03-08T07:58:39.592Z,29.57
2018-03-08T08:01:07.314Z,25.83
2018-03-08T08:03:34.971Z,29.20
2018-03-08T08:06:15.251Z,26.90
2018-03-08T08:08:54.703Z,28.13
2018-03-08T08:11:22.290Z,35.27
2018-03-08T08:13:50.048Z,30.53
2018-03-08T08:16:17.729Z,37.97
2018-03-08T08:18:45.446Z,34.83
2018-03-08T08:21:13.121Z,38.87
2018-03-08T08:23:41.546Z,40.80
2018-03-08T08:26:09.193Z,36.20
2018-03-08T08:28:36.882Z,37.20
2018-03-08T08:31:04.559Z,38.23
2018-03-08T08:33:32.211Z,30.60
2018-03-08T08:36:01.966Z,31.63
2018-03-08T08:38:29.630Z,28.20
2018-03-08T08:40:58.073Z,25.87
2018-03-08T08:43:25.729Z,26.57
2018-03-08T08:45:53.374Z,25.67
2018-03-08T08:48:21.060Z,26.50
2018-03-08T08:50:48.802Z,19.90
2018-03-08T08:53:16.499Z,20.97
2018-03-08T08:55:44.195Z,21.23
2018-03-08T08:58:11.881Z,19.20
2018-03-08T09:00:39.587Z,18.03
2018-03-08T09:03:08.116Z,18.33
2018-03-08T09:05:43.063Z,18.53
2018-03-08T09:08:10.717Z,15.27
2018-03-08T09:10:38.380Z,11.57
2018-03-08T09:13:06.048Z,15.53
2018-03-08T09:15:33.757Z,12.43
2018-03-08T09:18:01.507Z,12.10
2018-03-08T09:20:29.181Z,14.33
2018-03-08T09:22:56.804Z,11.60
2018-03-08T09:25:24.548Z,11.30
2018-03-08T09:27:53.018Z,9.97
2018-03-08T09:30:20.689Z,11.73
2018-03-08T09:32:49.287Z,10.17
2018-03-08T09:35:17.240Z,9.53
2018-03-08T09:37:44.931Z,15.60
2018-03-08T09:40:12.863Z,11.83
2018-03-08T09:42:44.304Z,12.17
2018-03-08T09:45:12.577Z,10.50
2018-03-08T09:47:40.360Z,12.07
2018-03-08T09:50:08.066Z,14.03
2018-03-08T09:52:37.004Z,12.87
2018-03-08T09:55:06.172Z,11.87
2018-03-08T09:57:35.332Z,11.07
2018-03-08T10:00:03.988Z,14.60
2018-03-08T10:02:31.659Z,11.27
2018-03-08T10:04:59.383Z,10.07
2018-03-08T10:07:27.953Z,10.03
2018-03-08T10:09:55.680Z,10.63
2018-03-08T10:12:23.333Z,9.93
2018-03-08T10:14:51.036Z,11.13
2018-03-08T10:17:18.812Z,9.13
2018-03-08T10:19:46.471Z,10.30
2018-03-08T10:22:14.143Z,9.07
2018-03-08T10:24:42.394Z,8.23
2018-03-08T10:27:10.021Z,9.03
2018-03-08T10:29:37.788Z,8.53
2018-03-08T10:32:08.323Z,7.80
2018-03-08T10:34:36.614Z,7.33
2018-03-08T10:37:04.291Z,8.03
2018-03-08T10:39:31.993Z,8.13
2018-03-08T10:41:59.696Z,7.20
2018-03-08T10:44:27.379Z,7.70
2018-03-08T10:46:55.080Z,9.40
2018-03-08T10:49:22.678Z,7.27
2018-03-08T10:51:50.437Z,6.87
2018-03-08T10:54:18.112Z,9.00
2018-03-08T10:56:45.773Z,6.97
2018-03-08T10:59:13.468Z,12.67
2018-03-08T11:01:44.327Z,9.43
2018-03-08T11:04:15.262Z,6.13
2018-03-08T11:06:43.479Z,7.10
2018-03-08T11:09:11.141Z,7.40
2018-03-08T11:11:40.072Z,8.27
2018-03-08T11:14:07.732Z,9.20
2018-03-08T11:16:37.416Z,7.83
2018-03-08T11:19:05.368Z,7.13
2018-03-08T11:21:33.687Z,7.70
2018-03-08T11:24:02.875Z,6.80
2018-03-08T11:26:30.567Z,5.83
2018-03-08T11:28:58.230Z,9.33
2018-03-08T11:31:26.396Z,6.53
2018-03-08T11:33:54.220Z,6.10
2018-03-08T11:36:21.886Z,8.13
2018-03-08T11:38:50.365Z,7.57
2018-03-08T11:41:17.959Z,6.27
2018-03-08T11:43:45.543Z,6.27
2018-03-08T11:46:14.114Z,5.07
2018-03-08T11:48:41.881Z,7.03
2018-03-08T11:51:09.581Z,6.43
2018-03-08T11:53:37.206Z,7.63
2018-03-08T11:56:04.786Z,6.20
2018-03-08T11:58:32.366Z,6.20
2018-03-08T12:01:00.240Z,7.50
2018-03-08T12:03:27.893Z,9.40
2018-03-08T12:05:55.585Z,6.07
2018-03-08T12:08:23.240Z,6.93
2018-03-08T12:10:50.909Z,5.83
2018-03-08T12:13:18.588Z,5.93
2018-03-08T12:15:46.453Z,4.77
2018-03-08T12:18:14.300Z,6.57
2018-03-08T12:20:41.966Z,5.73
2018-03-08T12:23:13.154Z,5.20
2018-03-08T12:25:48.138Z,7.27
2018-03-08T12:28:16.271Z,6.47
2018-03-08T12:30:44.736Z,8.20
2018-03-08T12:33:12.402Z,5.80
2018-03-08T12:35:40.246Z,5.30
2018-03-08T12:38:09.111Z,7.97
2018-03-08T12:40:36.789Z,6.37
2018-03-08T12:43:04.469Z,6.50
2018-03-08T12:45:34.260Z,5.30
2018-03-08T12:48:02.397Z,6.67
2018-03-08T12:50:31.202Z,6.43
2018-03-08T12:52:58.851Z,4.60
2018-03-08T12:55:27.263Z,4.83
2018-03-08T12:57:55.720Z,6.13
2018-03-08T13:00:23.370Z,6.00
2018-03-08T13:02:51.079Z,5.30
2018-03-08T13:05:18.813Z,5.90
2018-03-08T13:07:46.568Z,5.27
2018-03-08T13:10:15.010Z,7.43
2018-03-08T13:12:42.641Z,6.67
2018-03-08T13:15:11.485Z,5.53
2018-03-08T13:17:39.084Z,6.73
2018-03-08T13:20:06.672Z,5.97
2018-03-08T13:22:34.327Z,8.70
2018-03-08T13:25:02.065Z,5.80
2018-03-08T13:27:29.778Z,6.57
2018-03-08T13:29:57.454Z,6.23
2018-03-08T13:32:25.115Z,4.70
2018-03-08T13:35:11.700Z,4.43
2018-03-08T13:37:39.305Z,5.37
2018-03-08T13:40:06.966Z,3.97
2018-03-08T13:42:34.654Z,4.90
2018-03-08T13:45:02.446Z,5.47
2018-03-08T13:47:30.103Z,4.90
2018-03-08T13:49:58.695Z,6.10
2018-03-08T13:52:26.408Z,3.87
2018-03-08T13:54:53.955Z,6.27
2018-03-08T13:57:21.575Z,5.33
2018-03-08T13:59:49.263Z,6.60
2018-03-08T14:02:16.935Z,7.00
2018-03-08T14:04:52.984Z,4.53
2018-03-08T14:07:20.657Z,10.60
2018-03-08T14:09:48.314Z,6.37
2018-03-08T14:12:16.043Z,6.07
2018-03-08T14:14:43.749Z,5.13
2018-03-08T14:17:11.444Z,5.73
2018-03-08T14:19:39.904Z,6.57
2018-03-08T14:22:07.567Z,5.87
2018-03-08T14:24:35.242Z,5.10
2018-03-08T14:27:02.952Z,7.47
2018-03-08T14:29:30.602Z,4.30
2018-03-08T14:31:58.338Z,5.13
2018-03-08T14:34:26.003Z,5.33
2018-03-08T14:36:53.743Z,4.43
2018-03-08T14:39:21.369Z,4.83
2018-03-08T14:41:48.965Z,7.00
2018-03-08T14:44:16.590Z,3.67
2018-03-08T14:46:44.297Z,5.17
2018-03-08T14:49:11.954Z,5.60
2018-03-08T14:51:39.896Z,8.80
2018-03-08T14:54:07.533Z,10.13
2018-03-08T14:56:35.461Z,7.40
2018-03-08T14:59:03.359Z,8.27
2018-03-08T15:01:31.022Z,9.17
2018-03-08T15:03:58.698Z,6.63
2018-03-08T15:06:27.120Z,7.47
2018-03-08T15:08:54.771Z,5.90
2018-03-08T15:11:22.432Z,8.50
2018-03-08T15:13:50.114Z,6.20
2018-03-08T15:16:17.796Z,10.47
2018-03-08T15:18:45.470Z,8.47
2018-03-08T15:21:13.042Z,11.40
2018-03-08T15:23:41.398Z,6.23
2018-03-08T15:26:10.073Z,7.30
2018-03-08T15:28:37.692Z,9.77
2018-03-08T15:31:05.268Z,6.30
2018-03-08T15:33:33.650Z,6.30
2018-03-08T15:36:01.300Z,5.10
2018-03-08T15:38:28.954Z,6.53
2018-03-08T15:40:56.601Z,9.80
2018-03-08T15:43:25.029Z,11.40
2018-03-08T15:45:52.629Z,8.87
2018-03-08T15:48:20.264Z,9.37
2018-03-08T15:50:47.861Z,6.57
2018-03-08T15:53:15.527Z,10.23
2018-03-08T15:55:48.304Z,6.83
2018-03-08T15:58:16.001Z,7.60
2018-03-08T16:00:43.722Z,8.90
2018-03-08T16:03:11.389Z,7.93
2018-03-08T16:05:39.058Z,5.20
2018-03-08T16:11:19.445Z,5.47
2018-03-08T16:13:47.107Z,3.63
2018-03-08T16:16:14.827Z,5.67
2018-03-08T16:18:42.519Z,4.10
2018-03-08T16:21:10.169Z,4.37
2018-03-08T16:23:37.825Z,4.17
2018-03-08T16:26:05.504Z,4.87
2018-03-08T16:28:33.253Z,4.23
2018-03-08T16:31:00.920Z,4.00
2018-03-08T16:33:28.584Z,3.00
2018-03-08T16:36:00.143Z,3.07
2018-03-08T16:38:27.861Z,5.57
2018-03-08T16:40:55.520Z,3.50
2018-03-08T16:43:23.209Z,3.97
2018-03-08T16:45:50.873Z,4.50
2018-03-08T16:48:18.535Z,4.50
2018-03-08T16:50:46.215Z,4.03
2018-03-08T16:53:13.887Z,4.67
2018-03-08T16:55:41.581Z,3.30
2018-03-08T16:58:09.264Z,3.50
2018-03-08T17:00:36.913Z,4.23
2018-03-08T17:03:04.582Z,3.73
2018-03-08T17:05:38.745Z,4.53
2018-03-08T17:08:06.459Z,5.30
2018-03-08T17:10:34.115Z,4.00
2018-03-08T17:13:01.794Z,8.93
2018-03-08T17:15:30.253Z,5.37
2018-03-08T17:17:57.904Z,9.97
2018-03-08T17:20:25.545Z,9.50
2018-03-08T17:22:53.193Z,7.00
2018-03-08T17:25:20.875Z,10.13
2018-03-08T17:27:48.535Z,5.77
2018-03-08T17:30:16.232Z,4.80
2018-03-08T17:32:43.866Z,6.10
2018-03-08T17:35:11.714Z,2.40
2018-03-08T17:37:39.364Z,4.60
2018-03-08T17:40:07.028Z,3.70
2018-03-08T17:42:34.727Z,2.60
2018-03-08T17:45:02.388Z,3.27
2018-03-08T17:47:30.073Z,3.23
2018-03-08T17:49:57.711Z,3.80
2018-03-08T17:52:25.372Z,2.63
2018-03-08T17:54:53.044Z,3.67
2018-03-08T17:57:20.904Z,5.47
2018-03-08T17:59:48.578Z,4.57
2018-03-08T18:02:16.174Z,3.23
2018-03-08T18:04:43.956Z,4.90
2018-03-08T18:07:11.648Z,2.27
2018-03-08T18:09:39.333Z,2.50
2018-03-08T18:12:06.985Z,4.20
2018-03-08T18:14:34.642Z,4.10
2018-03-08T18:17:02.221Z,2.70
2018-03-08T18:19:29.816Z,2.33
2018-03-08T18:21:57.406Z,1.90
2018-03-08T18:24:25.010Z,3.40
2018-03-08T18:27:00.263Z,3.57
2018-03-08T18:29:27.982Z,2.80
2018-03-08T18:31:55.662Z,2.63
2018-03-08T18:34:23.322Z,3.60
2018-03-08T18:36:50.938Z,3.60
2018-03-08T18:39:18.620Z,3.13
2018-03-08T18:41:46.290Z,6.33
2018-03-08T18:44:13.868Z,3.83
2018-03-08T18:46:41.455Z,7.03
2018-03-08T18:49:09.048Z,4.37
2018-03-08T18:51:36.738Z,4.37
2018-03-08T18:54:04.410Z,5.50
2018-03-08T18:56:39.920Z,6.83
2018-03-08T18:59:08.369Z,6.03
2018-03-08T19:01:35.959Z,3.70
2018-03-08T19:04:03.644Z,6.37
2018-03-08T19:06:31.311Z,7.33
2018-03-08T19:08:58.959Z,6.20
2018-03-08T19:11:26.637Z,6.70
2018-03-08T19:13:54.304Z,7.37
2018-03-08T19:16:22.013Z,5.93
2018-03-08T19:18:49.708Z,7.23
2018-03-08T19:21:17.435Z,7.83
2018-03-08T19:23:45.048Z,10.60
2018-03-08T19:26:17.390Z,8.97
2018-03-08T19:28:45.055Z,12.23
2018-03-08T19:31:13.505Z,13.80
2018-03-08T19:33:41.170Z,11.27
2018-03-08T19:36:09.033Z,9.97
2018-03-08T19:38:36.680Z,13.77
2018-03-08T19:41:04.369Z,12.43
2018-03-08T19:43:32.039Z,9.00
2018-03-08T19:45:59.722Z,11.63
2018-03-08T19:48:27.303Z,11.50
2018-03-08T19:50:55.761Z,10.17
2018-03-08T19:53:23.406Z,10.53
2018-03-08T19:55:59.210Z,10.37
2018-03-08T19:58:26.882Z,7.67
2018-03-08T20:00:54.542Z,6.97
2018-03-08T20:03:22.236Z,6.83
2018-03-08T20:05:49.900Z,6.23
2018-03-08T20:08:17.563Z,6.53
2018-03-08T20:10:45.223Z,5.75
2018-03-08T20:13:12.874Z,6.77
2018-03-08T20:15:40.548Z,5.13
2018-03-08T20:18:08.251Z,5.97
2018-03-08T20:20:36.672Z,4.10
2018-03-08T20:23:04.356Z,4.23
2018-03-08T20:25:32.119Z,5.10
2018-03-08T20:27:59.785Z,8.03
2018-03-08T20:30:28.319Z,5.73
2018-03-08T20:32:55.979Z,5.27
2018-03-08T20:35:23.648Z,5.67
2018-03-08T20:37:51.339Z,7.47
2018-03-08T20:40:18.988Z,6.87
2018-03-08T20:42:46.655Z,7.70
2018-03-08T20:45:14.396Z,7.83
2018-03-08T20:47:42.870Z,8.50
2018-03-08T20:50:10.515Z,8.03
2018-03-08T20:52:38.228Z,8.23
2018-03-08T20:55:10.049Z,7.03
2018-03-08T20:57:37.726Z,9.43
2018-03-08T21:00:05.422Z,8.67
2018-03-08T21:02:33.127Z,8.67
2018-03-08T21:05:00.837Z,8.23
2018-03-08T21:07:29.300Z,8.47
2018-03-08T21:09:56.971Z,9.87
2018-03-08T21:12:24.631Z,7.53
2018-03-08T21:14:52.272Z,8.53
2018-03-08T21:17:19.927Z,7.13
2018-03-08T21:19:47.588Z,6.83
2018-03-08T21:22:15.246Z,7.67
2018-03-08T21:24:48.896Z,5.50
2018-03-08T21:27:17.303Z,5.50
2018-03-08T21:29:44.953Z,6.07
2018-03-08T21:32:12.637Z,9.13
2018-03-08T21:34:40.317Z,5.90
2018-03-08T21:37:07.964Z,6.27
2018-03-08T21:39:36.563Z,6.57
2018-03-08T21:42:04.234Z,5.53
2018-03-08T21:44:32.469Z,6.50
2018-03-08T21:47:00.140Z,5.70
2018-03-08T21:49:27.794Z,6.20
2018-03-08T21:51:55.461Z,7.80
2018-03-08T21:54:23.137Z,7.33
2018-03-08T21:56:50.773Z,9.43
2018-03-08T21:59:19.252Z,9.57
2018-03-08T22:01:47.732Z,9.27
2018-03-08T22:04:15.558Z,7.33
2018-03-08T22:06:43.228Z,11.87
2018-03-08T22:09:10.892Z,9.23
2018-03-08T22:11:38.582Z,12.83
2018-03-08T22:14:06.305Z,12.20
2018-03-08T22:16:51.601Z,14.80
2018-03-08T22:19:19.282Z,15.13
2018-03-08T22:21:47.721Z,13.90
2018-03-08T22:24:15.318Z,12.97
2018-03-08T22:26:42.929Z,14.23
2018-03-08T22:29:10.567Z,13.37
2018-03-08T22:31:38.222Z,14.13
2018-03-08T22:34:06.656Z,14.23
2018-03-08T22:36:34.310Z,16.67
2018-03-08T22:39:01.983Z,19.77
2018-03-08T22:41:29.672Z,17.03
2018-03-08T22:43:57.384Z,17.90
2018-03-08T22:46:25.173Z,15.87
2018-03-08T22:48:52.885Z,15.20
2018-03-08T22:51:21.317Z,15.17
2018-03-08T22:53:48.980Z,16.57
2018-03-08T22:56:16.661Z,15.23
2018-03-08T22:58:44.256Z,18.27
2018-03-08T23:04:20.931Z,13.67
2018-03-08T23:06:48.661Z,13.97
2018-03-08T23:09:16.331Z,14.37
2018-03-08T23:11:43.985Z,13.33
2018-03-08T23:14:11.639Z,14.73
2018-03-08T23:16:39.295Z,12.30
2018-03-08T23:19:06.964Z,12.67
2018-03-08T23:21:35.596Z,11.70
2018-03-08T23:24:03.242Z,11.60
2018-03-08T23:26:30.900Z,9.50
2018-03-08T23:28:58.493Z,16.93
2018-03-08T23:31:26.163Z,12.37
2018-03-08T23:33:54.608Z,10.93
2018-03-08T23:36:27.186Z,10.10
2018-03-08T23:38:55.077Z,10.20
2018-03-08T23:41:22.764Z,11.97
2018-03-08T23:43:50.432Z,14.20
2018-03-08T23:46:19.496Z,10.20
2018-03-08T23:48:47.185Z,13.90
2018-03-08T23:51:14.909Z,9.37
2018-03-08T23:53:42.595Z,9.90
2018-03-08T23:56:10.257Z,13.17
2018-03-08T23:58:37.927Z,13.07
